Time;durP1;ratioP1;P1;durP2;ratioP2;P2;SDS_P1;SDS_P2;PMS_P1;PMS_P2;Temp;Humidity;BMP_temperature;BMP_pressure;BME280_temperature;BME280_humidity;BME280_pressure;Samples;Min_cycle;Max_cycle;Signal;HPM_P1;HPM_P2
2021/09/21 00:00:48;;;;;;;13.75;7.72;;;14.20;87.60;;;;;;5077836;28;20209;-75
2021/09/21 00:03:13;;;;;;;12.18;7.25;;;14.20;87.80;;;;;;5074012;28;20179;-76
2021/09/21 00:05:39;;;;;;;9.95;6.70;;;14.10;87.90;;;;;;5068832;28;20198;-75
2021/09/21 00:08:05;;;;;;;12.43;7.70;;;14.10;88.10;;;;;;5072251;28;20179;-74
2021/09/21 00:10:31;;;;;;;14.30;7.03;;;14.10;88.10;;;;;;5071691;28;20189;-76
2021/09/21 00:12:57;;;;;;;10.77;6.93;;;14.10;88.20;;;;;;5065677;28;20217;-76
2021/09/21 00:15:23;;;;;;;15.25;8.73;;;14.00;88.20;;;;;;5067530;28;20198;-77
2021/09/21 00:17:51;;;;;;;17.13;8.23;;;14.00;88.20;;;;;;5070655;28;20178;-76
2021/09/21 00:20:18;;;;;;;14.93;8.70;;;14.00;88.30;;;;;;5071818;28;20190;-78
2021/09/21 00:22:44;;;;;;;15.15;7.93;;;14.00;88.50;;;;;;5070786;28;20195;-75
2021/09/21 00:25:11;;;;;;;15.25;7.80;;;13.90;88.60;;;;;;5100411;28;20225;-77
2021/09/21 00:27:38;;;;;;;11.70;7.65;;;13.90;88.70;;;;;;5065223;28;20274;-76
2021/09/21 00:30:06;;;;;;;14.88;7.97;;;13.90;88.80;;;;;;5074506;28;20647;-77
2021/09/21 00:32:32;;;;;;;13.32;7.93;;;13.90;88.80;;;;;;5072257;28;20666;-77
2021/09/21 00:34:58;;;;;;;13.48;7.65;;;13.80;88.80;;;;;;5070225;28;20190;-76
2021/09/21 00:37:24;;;;;;;13.60;7.78;;;13.80;89.00;;;;;;5074748;28;20190;-78
2021/09/21 00:39:50;;;;;;;15.23;7.63;;;13.80;89.00;;;;;;5076903;28;20536;-76
2021/09/21 00:42:23;;;;;;;12.82;7.68;;;13.80;89.30;;;;;;5071065;28;20197;-76
2021/09/21 00:44:57;;;;;;;13.73;7.43;;;13.80;89.50;;;;;;5075499;28;20277;-76
2021/09/21 00:47:23;;;;;;;16.33;7.93;;;13.70;89.50;;;;;;5073037;28;20190;-77
2021/09/21 00:49:48;;;;;;;10.57;6.68;;;13.70;89.60;;;;;;5072564;28;20205;-75
2021/09/21 00:52:14;;;;;;;12.15;7.35;;;13.70;89.70;;;;;;5074469;28;20972;-74
2021/09/21 00:54:40;;;;;;;13.93;7.65;;;13.70;89.80;;;;;;5072049;28;20186;-74
2021/09/21 00:57:05;;;;;;;10.60;6.95;;;13.70;89.80;;;;;;5073891;28;20184;-74
2021/09/21 00:59:31;;;;;;;13.57;7.63;;;13.70;89.70;;;;;;5068237;28;20520;-75
2021/09/21 01:01:56;;;;;;;13.10;8.15;;;13.60;89.80;;;;;;5073291;28;20194;-74
2021/09/21 01:04:23;;;;;;;18.92;9.10;;;13.60;90.00;;;;;;5055713;28;20194;-75
2021/09/21 01:06:48;;;;;;;16.08;9.05;;;13.60;90.10;;;;;;5068591;28;20189;-74
2021/09/21 01:09:22;;;;;;;15.88;8.63;;;13.50;90.20;;;;;;5072850;28;20182;-75
2021/09/21 01:11:50;;;;;;;18.08;8.88;;;13.50;90.40;;;;;;5068044;28;20214;-73
2021/09/21 01:14:16;;;;;;;13.82;8.68;;;13.50;90.50;;;;;;5071063;28;20681;-75
2021/09/21 01:16:42;;;;;;;13.55;8.15;;;13.50;90.60;;;;;;5075105;28;20218;-74
2021/09/21 01:19:11;;;;;;;14.27;8.32;;;13.40;90.70;;;;;;5104177;27;20189;-73
2021/09/21 01:21:38;;;;;;;13.07;8.23;;;13.50;90.80;;;;;;5071849;28;20226;-74
2021/09/21 01:24:04;;;;;;;13.23;8.20;;;13.40;90.80;;;;;;5072841;28;20190;-75
2021/09/21 01:26:30;;;;;;;11.50;7.72;;;13.40;90.90;;;;;;5055624;28;20194;-75
2021/09/21 01:28:56;;;;;;;13.43;7.85;;;13.40;91.00;;;;;;5071399;28;20221;-75
2021/09/21 01:31:22;;;;;;;13.43;7.80;;;13.40;91.10;;;;;;5087280;28;20726;-74
2021/09/21 01:33:50;;;;;;;13.40;7.60;;;13.30;91.10;;;;;;5070600;28;20184;-76
2021/09/21 01:36:18;;;;;;;13.63;7.93;;;13.30;91.30;;;;;;5072042;28;20189;-75
2021/09/21 01:38:44;;;;;;;13.70;7.57;;;13.30;91.40;;;;;;5072929;28;20289;-74
2021/09/21 01:41:10;;;;;;;15.38;7.22;;;13.20;91.50;;;;;;5074607;28;20706;-73
2021/09/21 01:43:36;;;;;;;12.52;7.28;;;13.20;91.60;;;;;;5075704;28;20273;-74
2021/09/21 01:46:02;;;;;;;14.98;9.07;;;13.20;91.70;;;;;;5074561;28;20211;-75
2021/09/21 01:48:27;;;;;;;15.95;8.93;;;13.20;91.80;;;;;;5101859;27;20205;-75
2021/09/21 01:50:59;;;;;;;13.15;8.20;;;13.20;91.90;;;;;;5067787;28;20191;-75
2021/09/21 02:01:33;;;;;;;11.85;7.43;;;13.10;92.10;;;;;;5044695;28;20662;-75
2021/09/21 02:04:00;;;;;;;10.75;6.97;;;13.10;92.10;;;;;;5074193;28;20214;-74
2021/09/21 02:06:40;;;;;;;11.90;7.45;;;13.10;92.20;;;;;;5068235;28;20194;-74
2021/09/21 02:09:08;;;;;;;12.48;7.93;;;13.10;92.20;;;;;;5067948;28;20216;-75
2021/09/21 02:11:34;;;;;;;10.70;7.22;;;13.10;92.30;;;;;;5071118;28;20208;-75
2021/09/21 02:14:00;;;;;;;13.07;6.93;;;13.10;92.40;;;;;;5072336;28;20194;-76
2021/09/21 02:16:31;;;;;;;12.48;6.78;;;13.10;92.50;;;;;;5070198;28;20274;-76
2021/09/21 02:18:58;;;;;;;12.70;7.25;;;13.10;92.50;;;;;;5067306;28;20194;-75
2021/09/21 02:21:24;;;;;;;11.30;7.18;;;13.00;92.50;;;;;;5066370;28;20249;-74
2021/09/21 02:23:51;;;;;;;10.18;6.38;;;13.00;92.50;;;;;;5070687;28;20194;-75
2021/09/21 02:26:17;;;;;;;11.00;7.13;;;13.00;92.60;;;;;;5068753;28;20282;-74
2021/09/21 02:28:43;;;;;;;10.55;6.80;;;12.90;92.60;;;;;;5069234;28;20265;-75
2021/09/21 02:31:08;;;;;;;11.25;7.10;;;12.90;92.70;;;;;;5074766;28;20206;-75
2021/09/21 02:33:34;;;;;;;10.45;6.93;;;12.90;92.80;;;;;;5071596;28;20949;-74
2021/09/21 02:36:00;;;;;;;10.02;6.55;;;12.90;92.90;;;;;;5070058;28;20186;-76
2021/09/21 02:38:26;;;;;;;10.52;6.88;;;12.80;92.90;;;;;;5068404;28;20186;-75
2021/09/21 02:40:51;;;;;;;13.98;6.78;;;12.90;93.00;;;;;;5073443;28;20190;-74
2021/09/21 02:43:17;;;;;;;13.95;7.20;;;12.80;93.10;;;;;;5070234;28;20186;-75
2021/09/21 02:45:43;;;;;;;13.48;7.07;;;12.80;93.10;;;;;;5069677;28;20208;-75
2021/09/21 02:48:08;;;;;;;9.38;6.43;;;12.80;93.10;;;;;;5085332;28;20220;-74
2021/09/21 02:50:34;;;;;;;11.25;6.50;;;12.80;93.10;;;;;;5072473;28;20197;-73
2021/09/21 02:53:00;;;;;;;11.25;6.95;;;12.80;93.10;;;;;;5070564;28;20210;-76
2021/09/21 02:55:26;;;;;;;9.23;6.40;;;12.80;93.10;;;;;;5072516;28;20635;-74
2021/09/21 02:57:51;;;;;;;10.82;6.22;;;12.80;93.10;;;;;;5069381;28;20628;-75
2021/09/21 03:00:26;;;;;;;12.27;6.70;;;12.70;93.10;;;;;;5069541;28;20292;-74
2021/09/21 03:02:54;;;;;;;9.88;6.00;;;12.70;93.00;;;;;;5068825;28;20576;-75
2021/09/21 03:05:33;;;;;;;9.65;6.43;;;12.70;93.10;;;;;;5072519;28;20187;-74
2021/09/21 03:08:21;;;;;;;11.73;7.00;;;12.60;93.10;;;;;;5072282;28;20853;-74
2021/09/21 03:18:56;;;;;;;14.95;7.28;;;12.50;93.40;;;;;;5068781;28;20243;-75
2021/09/21 03:21:23;;;;;;;10.82;7.07;;;12.50;93.50;;;;;;5067184;28;20249;-76
2021/09/21 03:23:49;;;;;;;9.15;6.30;;;12.40;93.50;;;;;;5071183;28;20197;-74
2021/09/21 03:26:14;;;;;;;11.35;6.68;;;12.40;93.60;;;;;;5071386;28;20643;-74
2021/09/21 03:28:40;;;;;;;14.48;7.55;;;12.40;93.60;;;;;;5103414;28;20189;-76
2021/09/21 03:31:06;;;;;;;11.32;7.25;;;12.40;93.70;;;;;;5070898;28;20237;-75
2021/09/21 03:33:31;;;;;;;13.77;7.80;;;12.40;93.80;;;;;;5070024;28;20186;-75
2021/09/21 03:35:57;;;;;;;13.15;6.93;;;12.40;93.80;;;;;;5100201;28;20186;-75
2021/09/21 03:38:23;;;;;;;10.73;6.72;;;12.40;93.80;;;;;;5072507;28;20198;-75
2021/09/21 03:40:48;;;;;;;11.57;6.85;;;12.30;93.70;;;;;;5065995;28;20948;-75
2021/09/21 03:43:14;;;;;;;13.68;6.60;;;12.30;93.80;;;;;;5068147;28;20200;-74
2021/09/21 03:45:40;;;;;;;10.82;6.85;;;12.30;93.80;;;;;;5082485;28;20259;-74
2021/09/21 03:48:08;;;;;;;15.68;7.13;;;12.30;93.80;;;;;;5065141;28;20210;-72
2021/09/21 03:50:35;;;;;;;18.15;7.43;;;12.30;93.90;;;;;;5067828;28;20643;-74
2021/09/21 03:53:02;;;;;;;9.57;6.45;;;12.20;93.90;;;;;;5066530;28;20289;-74
2021/09/21 03:55:28;;;;;;;13.50;7.20;;;12.20;93.90;;;;;;5099278;28;20218;-71
2021/09/21 03:57:54;;;;;;;11.13;7.38;;;12.20;93.90;;;;;;5067728;28;20686;-74
2021/09/21 04:00:19;;;;;;;13.48;6.97;;;12.20;94.00;;;;;;5066022;28;20210;-74
2021/09/21 04:02:45;;;;;;;15.60;7.55;;;12.10;94.00;;;;;;5100265;28;20193;-73
2021/09/21 04:05:11;;;;;;;9.38;6.68;;;12.10;94.10;;;;;;5069227;28;20224;-73
2021/09/21 04:07:37;;;;;;;12.77;6.72;;;12.10;94.20;;;;;;5088339;28;20186;-74
2021/09/21 04:10:04;;;;;;;13.52;6.63;;;12.10;94.30;;;;;;5074616;28;20190;-73
2021/09/21 04:12:29;;;;;;;11.35;6.95;;;12.00;94.30;;;;;;5106534;27;20228;-74
2021/09/21 04:14:55;;;;;;;10.02;6.40;;;12.00;94.40;;;;;;5103465;27;20190;-75
2021/09/21 04:17:21;;;;;;;12.23;7.43;;;12.00;94.50;;;;;;5069971;28;20186;-75
2021/09/21 04:19:46;;;;;;;12.88;7.10;;;12.00;94.50;;;;;;5070667;28;20537;-74
2021/09/21 04:22:12;;;;;;;13.20;7.13;;;12.00;94.60;;;;;;5066979;28;20733;-75
2021/09/21 04:24:37;;;;;;;12.43;6.88;;;12.00;94.60;;;;;;5080396;28;20643;-74
2021/09/21 04:27:04;;;;;;;10.75;6.72;;;12.00;94.70;;;;;;5063810;28;20308;-73
2021/09/21 04:29:30;;;;;;;9.23;7.03;;;12.00;94.70;;;;;;5063865;28;20240;-75
2021/09/21 04:31:59;;;;;;;12.82;7.03;;;12.00;94.80;;;;;;5065511;28;20242;-75
2021/09/21 04:34:25;;;;;;;12.77;7.20;;;11.90;94.80;;;;;;5064345;28;20190;-73
2021/09/21 04:36:51;;;;;;;13.38;7.63;;;11.90;94.80;;;;;;5066567;28;20179;-73
2021/09/21 04:39:19;;;;;;;22.10;9.10;;;11.90;94.80;;;;;;5064810;28;20185;-75
2021/09/21 04:41:45;;;;;;;18.90;7.95;;;11.90;94.90;;;;;;5064379;28;20201;-73
2021/09/21 04:44:11;;;;;;;16.73;7.43;;;11.90;95.00;;;;;;5077736;28;20257;-73
2021/09/21 04:46:36;;;;;;;17.75;8.60;;;11.90;95.00;;;;;;5060464;28;20259;-74
2021/09/21 04:49:08;;;;;;;23.73;8.23;;;11.90;95.10;;;;;;5043637;28;20707;-76
2021/09/21 04:51:34;;;;;;;18.85;7.57;;;11.90;95.20;;;;;;5055795;28;20214;-74
2021/09/21 04:53:59;;;;;;;16.98;7.50;;;11.90;95.20;;;;;;5061875;28;20187;-76
2021/09/21 04:56:25;;;;;;;15.52;7.80;;;12.00;95.30;;;;;;5066181;28;20186;-76
2021/09/21 04:58:51;;;;;;;17.02;7.97;;;12.00;95.30;;;;;;5046804;28;20194;-75
2021/09/21 05:01:17;;;;;;;18.27;8.02;;;12.00;95.40;;;;;;5066109;28;20190;-75
2021/09/21 05:03:42;;;;;;;20.33;10.00;;;12.00;95.40;;;;;;5062439;28;20212;-74
2021/09/21 05:06:08;;;;;;;22.83;8.25;;;12.00;95.40;;;;;;5062965;28;20274;-72
2021/09/21 05:08:34;;;;;;;15.88;8.45;;;12.00;95.50;;;;;;5040668;28;20221;-76
2021/09/21 05:10:59;;;;;;;16.60;8.25;;;12.00;95.40;;;;;;5064562;28;20202;-74
2021/09/21 05:13:25;;;;;;;15.40;7.65;;;12.00;95.50;;;;;;5046852;28;20178;-75
2021/09/21 05:15:50;;;;;;;20.35;8.43;;;12.10;95.50;;;;;;5062955;28;20227;-73
2021/09/21 05:18:16;;;;;;;34.65;8.60;;;12.10;95.40;;;;;;5063448;28;20316;-74
2021/09/21 05:20:42;;;;;;;13.63;8.13;;;12.10;95.40;;;;;;5080843;28;20297;-72
2021/09/21 05:23:07;;;;;;;14.20;7.03;;;12.10;95.40;;;;;;5066326;28;20197;-73
2021/09/21 05:25:35;;;;;;;18.27;7.75;;;12.10;95.30;;;;;;5075026;28;20318;-74
2021/09/21 05:28:01;;;;;;;12.05;7.70;;;12.10;95.20;;;;;;5077604;28;20189;-73
2021/09/21 05:30:27;;;;;;;17.23;7.35;;;12.10;95.20;;;;;;5077250;28;20189;-73
2021/09/21 05:32:52;;;;;;;19.42;7.63;;;12.10;95.10;;;;;;5070325;28;20244;-72
2021/09/21 05:35:18;;;;;;;25.52;7.40;;;12.00;95.10;;;;;;5070524;28;20263;-75
2021/09/21 05:37:44;;;;;;;29.60;7.57;;;12.00;95.10;;;;;;5069594;28;20179;-75
2021/09/21 05:40:10;;;;;;;22.05;7.30;;;12.00;95.10;;;;;;5069606;28;20219;-73
2021/09/21 05:42:36;;;;;;;24.42;7.63;;;12.00;95.10;;;;;;5072711;28;20201;-76
2021/09/21 05:45:08;;;;;;;15.50;7.30;;;12.00;95.10;;;;;;5069441;28;20541;-76
2021/09/21 05:47:34;;;;;;;17.40;7.53;;;12.10;95.10;;;;;;5067587;28;20260;-74
2021/09/21 05:50:00;;;;;;;14.05;7.53;;;12.00;95.10;;;;;;5070806;28;20218;-74
2021/09/21 05:52:27;;;;;;;13.07;7.18;;;12.10;95.20;;;;;;5107168;27;20238;-73
2021/09/21 05:54:52;;;;;;;15.85;7.72;;;12.10;95.20;;;;;;5102691;27;20576;-74
2021/09/21 05:57:18;;;;;;;15.02;7.50;;;12.10;95.20;;;;;;5074532;28;20261;-74
2021/09/21 05:59:43;;;;;;;14.25;7.30;;;12.10;95.20;;;;;;5069156;28;20193;-74
2021/09/21 06:02:09;;;;;;;16.48;7.22;;;12.10;95.20;;;;;;5068712;28;20228;-74
2021/09/21 06:04:35;;;;;;;14.07;7.55;;;12.20;95.20;;;;;;5052021;28;20243;-72
2021/09/21 06:07:01;;;;;;;14.18;8.07;;;12.20;95.20;;;;;;5067716;28;20182;-73
2021/09/21 06:09:27;;;;;;;16.65;8.00;;;12.20;95.10;;;;;;5102412;27;20190;-73
2021/09/21 06:11:52;;;;;;;11.57;7.50;;;12.20;95.10;;;;;;5069845;28;20212;-74
2021/09/21 06:14:18;;;;;;;11.82;7.05;;;12.20;95.00;;;;;;5068719;28;20186;-74
2021/09/21 06:16:44;;;;;;;15.32;8.30;;;12.30;95.00;;;;;;5068338;28;20642;-74
2021/09/21 06:19:09;;;;;;;12.10;7.25;;;12.20;94.90;;;;;;5068275;28;20675;-73
2021/09/21 06:21:35;;;;;;;15.23;7.78;;;12.30;94.80;;;;;;5065387;28;20313;-76
2021/09/21 06:24:01;;;;;;;11.60;7.55;;;12.30;94.80;;;;;;5061930;28;20214;-70
2021/09/21 06:26:26;;;;;;;9.40;6.75;;;12.30;94.70;;;;;;5076840;28;20299;-71
2021/09/21 06:28:52;;;;;;;15.48;7.00;;;12.30;94.70;;;;;;5059460;28;20191;-68
2021/09/21 06:31:18;;;;;;;10.50;7.07;;;12.30;94.60;;;;;;5059876;28;20221;-70
2021/09/21 06:33:44;;;;;;;13.65;6.85;;;12.40;94.50;;;;;;5061734;28;20202;-71
2021/09/21 06:36:12;;;;;;;12.32;8.50;;;12.50;94.40;;;;;;5061104;28;20178;-73
2021/09/21 06:38:38;;;;;;;9.63;6.68;;;12.50;94.30;;;;;;5045405;28;20651;-69
2021/09/21 06:41:04;;;;;;;12.95;7.18;;;12.60;94.20;;;;;;5062578;28;20517;-71
2021/09/21 06:43:30;;;;;;;11.57;6.95;;;12.60;94.00;;;;;;5062587;28;20194;-72
2021/09/21 06:45:56;;;;;;;9.80;6.43;;;12.70;94.00;;;;;;5060591;28;20229;-71
2021/09/21 06:48:23;;;;;;;13.43;6.03;;;12.70;93.80;;;;;;5062843;28;20187;-70
2021/09/21 06:50:49;;;;;;;11.02;6.10;;;12.80;93.60;;;;;;5058995;28;20186;-73
2021/09/21 06:53:15;;;;;;;9.50;6.38;;;12.80;93.50;;;;;;5063737;28;20750;-71
2021/09/21 06:55:40;;;;;;;17.92;6.30;;;12.90;93.30;;;;;;5078165;28;20186;-74
2021/09/21 06:58:06;;;;;;;12.20;6.70;;;12.90;93.10;;;;;;5042305;28;20197;-73
2021/09/21 07:00:35;;;;;;;11.95;5.93;;;12.90;92.90;;;;;;5045211;28;20592;-73
2021/09/21 07:03:01;;;;;;;17.17;6.38;;;13.00;92.80;;;;;;5060773;28;20194;-71
2021/09/21 07:05:26;;;;;;;7.80;5.45;;;13.00;92.60;;;;;;5059885;28;20199;-72
2021/09/21 07:07:52;;;;;;;9.05;4.88;;;13.10;92.50;;;;;;5044689;28;20182;-72
2021/09/21 07:10:19;;;;;;;9.88;4.90;;;13.10;92.70;;;;;;5044021;28;20217;-70
2021/09/21 07:12:45;;;;;;;8.63;4.70;;;13.20;92.10;;;;;;5078606;28;20214;-73
2021/09/21 07:15:12;;;;;;;9.18;5.00;;;13.20;91.90;;;;;;5061704;28;20182;-71
2021/09/21 07:17:38;;;;;;;9.05;4.88;;;13.20;91.70;;;;;;5062919;28;20286;-71
2021/09/21 07:20:05;;;;;;;11.20;5.10;;;13.30;91.50;;;;;;5076112;28;21004;-70
2021/09/21 07:22:32;;;;;;;9.88;4.97;;;13.30;91.30;;;;;;5067938;28;20590;-72
2021/09/21 07:24:58;;;;;;;8.35;5.30;;;13.30;91.10;;;;;;5067061;28;20194;-72
2021/09/21 07:27:23;;;;;;;8.73;5.22;;;13.40;90.90;;;;;;5069183;28;20229;-73
2021/09/21 07:29:49;;;;;;;11.38;5.38;;;13.40;90.70;;;;;;5069307;28;20214;-73
2021/09/21 07:32:15;;;;;;;7.88;4.70;;;13.40;90.60;;;;;;5068932;28;20260;-74
2021/09/21 07:34:40;;;;;;;7.68;5.40;;;13.40;90.50;;;;;;5068192;28;20183;-73
2021/09/21 07:37:06;;;;;;;10.35;5.18;;;13.50;90.50;;;;;;5070639;28;20196;-72
2021/09/21 07:39:31;;;;;;;11.50;4.63;;;13.50;90.40;;;;;;5070226;28;20285;-70
2021/09/21 07:41:57;;;;;;;6.18;4.18;;;13.60;90.30;;;;;;5070776;28;20654;-72
2021/09/21 07:44:23;;;;;;;13.40;5.40;;;13.70;90.10;;;;;;5074889;28;20193;-71
2021/09/21 07:46:49;;;;;;;9.55;4.30;;;13.70;89.80;;;;;;5074179;28;20190;-72
2021/09/21 07:49:15;;;;;;;8.48;4.03;;;13.70;89.40;;;;;;5070011;28;20194;-74
2021/09/21 07:51:41;;;;;;;6.95;4.43;;;13.80;89.00;;;;;;5076164;28;20678;-72
2021/09/21 07:54:08;;;;;;;9.63;4.10;;;13.80;88.50;;;;;;5074771;28;20309;-72
2021/09/21 07:56:34;;;;;;;7.00;4.45;;;14.00;88.20;;;;;;5078083;28;20194;-73
2021/09/21 07:59:02;;;;;;;6.97;3.90;;;14.00;87.80;;;;;;5072964;28;20221;-73
2021/09/21 08:01:28;;;;;;;11.70;4.45;;;14.10;87.50;;;;;;5073107;28;20322;-74
2021/09/21 08:03:55;;;;;;;8.50;4.15;;;14.20;87.00;;;;;;5072371;28;20207;-74
2021/09/21 08:06:20;;;;;;;7.00;3.90;;;14.30;86.70;;;;;;5071660;28;20194;-71
2021/09/21 08:08:46;;;;;;;5.90;4.20;;;14.30;86.40;;;;;;5070944;28;20179;-73
2021/09/21 08:11:12;;;;;;;7.15;4.28;;;14.40;86.10;;;;;;5071058;28;20187;-74
2021/09/21 08:13:38;;;;;;;6.88;4.15;;;14.50;86.00;;;;;;5070840;28;20189;-74
2021/09/21 08:16:04;;;;;;;6.05;4.20;;;14.60;85.80;;;;;;5072912;28;20178;-72
2021/09/21 08:18:29;;;;;;;12.75;4.40;;;14.70;85.50;;;;;;5074247;28;20201;-74
2021/09/21 08:20:55;;;;;;;8.13;4.20;;;14.80;85.10;;;;;;5071142;28;20226;-74
2021/09/21 08:23:20;;;;;;;7.95;4.35;;;14.90;84.30;;;;;;5071939;28;20190;-73
2021/09/21 08:25:46;;;;;;;9.93;4.38;;;15.00;83.80;;;;;;5080334;28;20323;-75
2021/09/21 08:28:12;;;;;;;9.13;3.80;;;15.20;83.50;;;;;;5104770;27;20199;-74
2021/09/21 08:30:38;;;;;;;12.23;4.43;;;15.40;83.50;;;;;;5069148;28;20217;-75
2021/09/21 08:33:04;;;;;;;5.50;3.55;;;15.80;83.10;;;;;;5072311;28;20202;-76
2021/09/21 08:35:29;;;;;;;6.30;3.60;;;16.30;82.00;;;;;;5072758;28;20190;-75
2021/09/21 08:37:56;;;;;;;5.53;3.75;;;16.90;80.60;;;;;;5071144;28;20183;-76
2021/09/21 08:40:23;;;;;;;6.05;3.20;;;17.40;78.20;;;;;;5071126;28;20883;-75
2021/09/21 08:42:48;;;;;;;7.70;3.53;;;17.90;75.60;;;;;;5070936;28;20301;-75
2021/09/21 08:45:14;;;;;;;5.65;3.35;;;18.40;74.00;;;;;;5070048;28;20356;-75
2021/09/21 08:47:41;;;;;;;6.78;3.17;;;19.00;71.70;;;;;;5104118;27;20194;-74
2021/09/21 08:50:10;;;;;;;7.40;3.45;;;19.70;69.70;;;;;;5075073;28;20190;-75
2021/09/21 08:52:40;;;;;;;5.68;3.42;;;20.30;67.50;;;;;;5071833;28;20713;-77
2021/09/21 08:55:08;;;;;;;7.68;3.40;;;20.80;64.30;;;;;;5070957;28;20179;-76
2021/09/21 08:57:35;;;;;;;11.98;3.75;;;21.20;62.80;;;;;;5068413;28;20738;-76
2021/09/21 09:00:00;;;;;;;8.80;3.97;;;21.70;60.70;;;;;;5070709;28;20295;-75
2021/09/21 09:02:27;;;;;;;5.00;2.95;;;22.20;59.00;;;;;;5073956;28;20189;-76
2021/09/21 09:05:07;;;;;;;3.92;2.88;;;22.70;57.10;;;;;;5072040;28;20519;-76
2021/09/21 09:07:36;;;;;;;4.18;2.97;;;23.20;55.50;;;;;;5070399;28;20178;-75
2021/09/21 09:10:05;;;;;;;6.38;3.10;;;23.60;53.80;;;;;;5101645;27;20745;-75
2021/09/21 09:12:33;;;;;;;5.43;2.60;;;24.10;52.60;;;;;;5106482;27;20259;-76
2021/09/21 09:15:11;;;;;;;5.90;2.88;;;24.60;50.70;;;;;;5071224;28;20186;-75
2021/09/21 09:17:38;;;;;;;3.55;2.33;;;25.10;48.90;;;;;;5070312;28;20198;-76
2021/09/21 09:20:06;;;;;;;3.50;2.17;;;25.70;47.70;;;;;;5071557;28;20630;-76
2021/09/21 09:22:31;;;;;;;3.15;2.10;;;26.30;46.20;;;;;;5075557;28;20241;-75
2021/09/21 09:25:06;;;;;;;5.45;2.10;;;27.00;44.90;;;;;;5068582;28;20237;-76
2021/09/21 09:27:41;;;;;;;6.00;2.17;;;27.40;42.50;;;;;;5068340;28;20189;-76
2021/09/21 09:30:09;;;;;;;3.95;2.28;;;27.90;41.70;;;;;;5071703;28;20228;-76
2021/09/21 09:32:46;;;;;;;4.15;2.20;;;28.20;40.90;;;;;;5070278;28;20704;-76
2021/09/21 09:35:26;;;;;;;2.95;2.03;;;28.50;39.70;;;;;;5070922;28;20654;-74
2021/09/21 09:37:52;;;;;;;9.57;1.98;;;28.80;38.80;;;;;;5075651;28;20181;-75
2021/09/21 09:40:18;;;;;;;;;;;29.20;38.50;;;;;;5068697;28;20190;-76
2021/09/21 09:42:45;;;;;;;2.72;2.00;;;29.70;37.60;;;;;;5073914;28;20013;-76
2021/09/21 09:45:12;;;;;;;3.53;2.38;;;30.00;36.40;;;;;;5069248;28;20193;-76
2021/09/21 09:47:48;;;;;;;3.67;2.30;;;30.20;35.90;;;;;;5054267;28;20190;-76
2021/09/21 09:50:15;;;;;;;2.30;1.80;;;30.20;35.10;;;;;;5071748;28;20620;-75
2021/09/21 09:52:41;;;;;;;3.63;2.17;;;30.40;35.30;;;;;;5056535;28;20201;-76
2021/09/21 09:55:07;;;;;;;6.38;2.17;;;30.70;34.90;;;;;;5077088;28;20584;-76
2021/09/21 09:57:34;;;;;;;5.63;2.55;;;30.90;34.70;;;;;;5071090;28;20668;-76
2021/09/21 10:00:01;;;;;;;5.03;2.38;;;31.30;34.40;;;;;;5103490;27;20182;-77
2021/09/21 10:02:38;;;;;;;4.03;2.30;;;31.50;33.70;;;;;;5066562;28;20186;-76
2021/09/21 10:05:04;;;;;;;4.97;2.45;;;31.60;33.50;;;;;;5070965;28;20277;-76
2021/09/21 10:07:30;;;;;;;3.65;2.40;;;31.60;33.50;;;;;;5070531;28;20181;-76
2021/09/21 10:09:56;;;;;;;5.05;2.60;;;31.50;33.60;;;;;;5069895;28;20190;-76
2021/09/21 10:12:22;;;;;;;6.10;2.53;;;31.30;33.80;;;;;;5070940;28;20255;-77
2021/09/21 10:14:49;;;;;;;5.80;3.00;;;31.00;34.00;;;;;;5099876;28;25103;-73
2021/09/21 10:17:25;;;;;;;5.82;2.67;;;30.80;34.30;;;;;;5069700;28;20186;-72
2021/09/21 10:19:55;;;;;;;6.68;2.60;;;30.40;34.50;;;;;;5065867;28;20220;-72
2021/09/21 10:22:31;;;;;;;4.35;2.45;;;29.90;35.10;;;;;;5062407;28;20240;-73
2021/09/21 10:25:05;;;;;;;5.30;2.90;;;29.40;35.80;;;;;;5060580;28;20205;-73
2021/09/21 10:27:35;;;;;;;7.03;2.42;;;29.00;36.50;;;;;;5063381;28;20679;-71
2021/09/21 10:30:05;;;;;;;5.90;2.58;;;28.70;37.30;;;;;;5060641;28;20190;-72
2021/09/21 10:32:31;;;;;;;10.90;2.60;;;28.40;37.90;;;;;;5079137;28;20206;-73
2021/09/21 10:34:58;;;;;;;7.05;3.00;;;28.20;38.80;;;;;;5043380;28;20185;-73
2021/09/21 10:37:31;;;;;;;6.43;2.80;;;28.00;39.80;;;;;;5062654;28;20218;-74
2021/09/21 10:40:01;;;;;;;7.95;2.45;;;27.90;40.30;;;;;;5061755;28;20174;-73
2021/09/21 10:42:28;;;;;;;8.45;2.47;;;27.80;40.60;;;;;;5062153;28;20280;-73
2021/09/21 10:44:58;;;;;;;6.00;2.80;;;27.80;41.00;;;;;;5044933;28;20186;-73
2021/09/21 10:47:27;;;;;;;4.20;2.60;;;27.60;41.40;;;;;;5042447;28;20190;-73
2021/09/21 10:49:53;;;;;;;6.68;2.78;;;27.60;41.80;;;;;;5063087;28;20216;-72
2021/09/21 10:52:26;;;;;;;3.92;2.65;;;27.60;42.00;;;;;;5075810;28;20240;-72
2021/09/21 10:54:59;;;;;;;5.80;3.45;;;27.50;41.90;;;;;;5063259;28;20178;-73
2021/09/21 10:57:31;;;;;;;5.72;3.10;;;27.30;41.90;;;;;;5060594;28;20187;-72
2021/09/21 11:00:08;;;;;;;5.25;2.90;;;27.10;42.20;;;;;;5062477;28;20694;-72
2021/09/21 11:02:37;;;;;;;6.40;3.30;;;26.90;42.60;;;;;;5062526;28;20638;-72
2021/09/21 11:05:06;;;;;;;5.57;3.08;;;26.70;43.00;;;;;;5058460;28;20194;-72
2021/09/21 11:07:32;;;;;;;10.75;4.55;;;26.50;43.40;;;;;;5062524;28;20194;-73
2021/09/21 11:09:57;;;;;;;7.72;3.70;;;26.30;43.80;;;;;;5061146;28;20194;-72
2021/09/21 11:12:25;;;;;;;5.70;3.28;;;26.30;44.10;;;;;;5060879;28;20225;-73
2021/09/21 11:14:56;;;;;;;6.38;3.63;;;26.20;44.10;;;;;;5060006;28;20194;-74
2021/09/21 11:17:26;;;;;;;5.18;3.22;;;26.10;44.30;;;;;;5076218;28;20185;-72
2021/09/21 11:19:54;;;;;;;5.43;2.97;;;25.90;44.80;;;;;;5059853;28;20658;-73
2021/09/21 11:22:26;;;;;;;6.55;3.38;;;25.90;45.10;;;;;;5062228;28;20217;-71
2021/09/21 11:25:06;;;;;;;7.15;2.78;;;26.00;45.00;;;;;;5061947;28;20910;-73
2021/09/21 11:27:37;;;;;;;5.13;3.35;;;25.90;45.00;;;;;;5060668;28;20220;-74
2021/09/21 11:30:08;;;;;;;6.25;3.15;;;26.00;45.30;;;;;;5062759;28;20540;-74
2021/09/21 11:32:35;;;;;;;5.55;3.47;;;26.00;45.40;;;;;;5061995;28;20205;-74
2021/09/21 11:35:08;;;;;;;5.68;3.00;;;26.00;45.40;;;;;;5042420;28;20191;-72
2021/09/21 11:37:34;;;;;;;5.15;3.15;;;26.10;45.40;;;;;;5060146;28;20214;-72
2021/09/21 11:40:00;;;;;;;7.95;3.30;;;26.10;45.20;;;;;;5060835;28;20228;-72
2021/09/21 11:42:31;;;;;;;9.13;3.53;;;25.90;45.20;;;;;;5062179;28;20256;-74
2021/09/21 11:45:10;;;;;;;5.88;3.45;;;25.90;45.30;;;;;;5062221;28;20235;-72
2021/09/21 11:47:43;;;;;;;5.35;3.83;;;25.90;45.40;;;;;;5077681;28;20190;-74
2021/09/21 11:50:21;;;;;;;9.13;3.50;;;25.80;45.50;;;;;;5072109;28;20589;-72
2021/09/21 11:52:54;;;;;;;7.07;3.38;;;25.70;46.00;;;;;;5045113;28;20221;-73
2021/09/21 11:55:21;;;;;;;6.15;3.65;;;25.60;46.50;;;;;;5059813;28;20190;-75
2021/09/21 11:57:49;;;;;;;5.43;3.65;;;25.50;46.70;;;;;;5063015;28;20190;-74
2021/09/21 12:00:23;;;;;;;8.75;3.50;;;25.50;47.10;;;;;;5060603;28;20213;-72
2021/09/21 12:02:53;;;;;;;6.80;3.53;;;25.70;47.20;;;;;;5062189;28;20298;-73
2021/09/21 12:05:19;;;;;;;7.28;3.72;;;25.80;47.10;;;;;;5042189;28;20521;-75
2021/09/21 12:07:44;;;;;;;6.20;4.28;;;25.80;47.00;;;;;;5061726;28;20190;-75
2021/09/21 12:10:12;;;;;;;9.07;3.85;;;25.80;47.00;;;;;;5061750;28;20216;-73
2021/09/21 12:12:38;;;;;;;9.65;4.00;;;25.70;47.10;;;;;;5043602;28;20225;-75
2021/09/21 12:15:04;;;;;;;6.88;3.80;;;25.60;47.50;;;;;;5062726;28;20186;-73
2021/09/21 12:17:29;;;;;;;6.75;3.63;;;25.60;47.80;;;;;;5058898;28;20186;-71
2021/09/21 12:19:59;;;;;;;7.45;3.83;;;25.70;47.90;;;;;;5056495;28;20178;-73
2021/09/21 12:22:26;;;;;;;7.07;3.72;;;25.60;47.70;;;;;;5057199;28;20280;-72
2021/09/21 12:24:53;;;;;;;6.45;3.72;;;25.70;47.90;;;;;;5064000;28;20181;-73
2021/09/21 12:27:25;;;;;;;8.07;3.40;;;25.70;47.90;;;;;;5047655;28;20186;-72
2021/09/21 12:29:55;;;;;;;4.90;3.15;;;25.80;47.70;;;;;;5065006;28;20190;-72
2021/09/21 12:32:24;;;;;;;6.38;3.35;;;26.00;47.60;;;;;;5064526;28;20205;-72
2021/09/21 12:35:02;;;;;;;7.20;3.53;;;26.10;47.30;;;;;;5064843;28;20212;-75
2021/09/21 12:37:36;;;;;;;5.88;3.40;;;26.30;47.00;;;;;;5045494;28;20265;-71
2021/09/21 12:40:07;;;;;;;3.83;2.80;;;26.50;46.80;;;;;;5064719;28;20186;-74
2021/09/21 12:42:35;;;;;;;6.38;3.25;;;26.50;46.50;;;;;;5064844;28;20596;-73
2021/09/21 12:45:02;;;;;;;5.90;2.95;;;26.60;46.50;;;;;;5064898;28;20189;-72
2021/09/21 12:47:28;;;;;;;6.28;3.33;;;26.70;47.10;;;;;;5063521;28;20288;-73
2021/09/21 12:49:54;;;;;;;5.70;3.10;;;26.70;46.30;;;;;;5063916;28;20225;-73
2021/09/21 12:52:30;;;;;;;4.28;2.92;;;26.70;46.30;;;;;;5066307;28;20210;-73
2021/09/21 12:54:57;;;;;;;6.43;2.97;;;26.70;46.40;;;;;;5062776;28;20182;-74
2021/09/21 12:57:24;;;;;;;4.20;2.80;;;26.70;46.50;;;;;;5047480;28;20190;-71